Time,TemperatureF,DewpointF,PressureIn,WindDirection,WindDirectionDegrees,WindSpeedMPH,WindSpeedGustMPH,Humidity,HourlyPrecipIn,Conditions,Clouds,dailyrainin,SoftwareType,DateUTC
2013-01-08 00:00:00,47.3,44.2,30.18,NE,52,0.0,0.0,89,0.00,,,0.01,WeatherCatV1.11B39,2013-01-08 08:00:00,
2013-01-08 00:05:00,47.3,44.2,30.18,NE,52,0.0,0.0,89,0.00,,,0.00,WeatherCatV1.11B39,2013-01-08 08:05:00,
2013-01-08 00:10:00,47.2,44.1,30.19,NE,52,0.0,0.0,89,0.00,,,0.00,WeatherCatV1.11B39,2013-01-08 08:10:00,
2013-01-08 00:15:00,47.2,44.1,30.19,NE,50,0.0,0.0,89,0.00,,,0.00,WeatherCatV1.11B39,2013-01-08 08:15:00,
2013-01-08 00:20:00,47.2,44.4,30.19,NE,49,0.0,0.0,90,0.00,,,0.00,WeatherCatV1.11B39,2013-01-08 08:20:00,
2013-01-08 00:25:00,47.3,44.5,30.19,NE,49,0.0,0.0,90,0.00,,,0.00,WeatherCatV1.11B39,2013-01-08 08:25:00,
2013-01-08 00:30:00,47.2,44.4,30.19,NE,49,0.0,0.0,90,0.00,,,0.00,WeatherCatV1.11B39,2013-01-08 08:30:00,
2013-01-08 00:35:00,47.0,44.2,30.19,NE,49,0.0,0.0,90,0.00,,,0.00,WeatherCatV1.11B39,2013-01-08 08:35:00,
2013-01-08 00:40:00,46.8,44.0,30.19,NE,49,0.0,0.0,90,0.00,,,0.00,WeatherCatV1.11B39,2013-01-08 08:40:00,
2013-01-08 00:45:00,46.6,43.8,30.20,NE,50,0.0,0.0,90,0.00,,,0.00,WeatherCatV1.11B39,2013-01-08 08:45:00,
2013-01-08 00:50:00,46.5,43.7,30.20,NE,53,0.0,0.0,90,0.00,,,0.00,WeatherCatV1.11B39,2013-01-08 08:50:00,
2013-01-08 00:55:00,46.4,43.6,30.20,NE,53,0.0,0.0,90,0.00,,,0.00,WeatherCatV1.11B39,2013-01-08 08:55:00,
2013-01-08 01:00:00,46.4,43.6,30.20,NE,51,0.0,0.0,90,0.00,,,0.00,WeatherCatV1.11B39,2013-01-08 09:00:00,
2013-01-08 01:05:00,46.3,43.5,30.20,NE,50,0.0,0.0,90,0.00,,,0.00,WeatherCatV1.11B39,2013-01-08 09:05:00,
2013-01-08 01:10:00,46.3,43.5,30.20,NE,49,0.0,0.0,90,0.00,,,0.00,WeatherCatV1.11B39,2013-01-08 09:10:00,
2013-01-08 01:15:00,46.2,43.7,30.20,NE,48,0.0,0.0,91,0.00,,,0.00,WeatherCatV1.11B39,2013-01-08 09:15:00,
2013-01-08 01:20:00,46.1,43.6,30.20,NE,48,0.0,0.0,91,0.00,,,0.00,WeatherCatV1.11B39,2013-01-08 09:20:00,
2013-01-08 01:25:00,46.1,43.6,30.20,NE,41,0.0,0.0,91,0.00,,,0.00,WeatherCatV1.11B39,2013-01-08 09:25:00,
2013-01-08 01:30:00,46.0,43.5,30.20,NE,41,0.0,0.0,91,0.00,,,0.00,WeatherCatV1.11B39,2013-01-08 09:30:00,
2013-01-08 01:35:00,45.9,43.4,30.20,NE,41,0.0,0.0,91,0.00,,,0.00,WeatherCatV1.11B39,2013-01-08 09:35:00,
2013-01-08 01:40:00,45.8,43.3,30.20,NE,41,0.0,0.0,91,0.00,,,0.00,WeatherCatV1.11B39,2013-01-08 09:40:00,
2013-01-08 01:45:00,45.7,43.2,30.20,NE,41,0.0,0.0,91,0.00,,,0.00,WeatherCatV1.11B39,2013-01-08 09:45:00,
2013-01-08 01:50:00,45.6,43.1,30.20,NE,41,0.0,0.0,91,0.00,,,0.00,WeatherCatV1.11B39,2013-01-08 09:50:00,
2013-01-08 01:55:00,45.6,43.1,30.20,NE,41,0.0,0.0,91,0.00,,,0.00,WeatherCatV1.11B39,2013-01-08 09:55:00,
2013-01-08 02:00:00,45.6,43.1,30.20,NE,41,0.0,0.0,91,0.00,,,0.00,WeatherCatV1.11B39,2013-01-08 10:00:00,
2013-01-08 02:05:00,45.4,42.9,30.20,East,90,0.0,0.0,91,0.00,,,0.00,WeatherCatV1.11B39,2013-01-08 10:05:00,
2013-01-08 02:10:00,45.4,42.9,30.20,East,90,0.0,0.0,91,0.00,,,0.00,WeatherCatV1.11B39,2013-01-08 10:10:00,
2013-01-08 02:15:00,45.4,42.9,30.20,East,91,0.0,0.0,91,0.00,,,0.00,WeatherCatV1.11B39,2013-01-08 10:15:00,
2013-01-08 02:20:00,45.4,42.9,30.19,ENE,72,0.0,0.0,91,0.00,,,0.00,WeatherCatV1.11B39,2013-01-08 10:20:00,
2013-01-08 02:25:00,45.4,42.9,30.19,ESE,107,0.0,0.0,91,0.00,,,0.00,WeatherCatV1.11B39,2013-01-08 10:25:00,
2013-01-08 02:30:00,45.4,42.9,30.19,East,83,0.0,0.0,91,0.00,,,0.00,WeatherCatV1.11B39,2013-01-08 10:30:00,
2013-01-08 02:35:00,45.5,43.0,30.19,NE,39,0.0,0.0,91,0.00,,,0.00,WeatherCatV1.11B39,2013-01-08 10:35:00,
2013-01-08 02:40:00,45.5,43.0,30.19,NE,46,0.0,0.0,91,0.00,,,0.00,WeatherCatV1.11B39,2013-01-08 10:40:00,
2013-01-08 02:45:00,45.5,43.0,30.19,NE,49,0.0,0.0,91,0.00,,,0.00,WeatherCatV1.11B39,2013-01-08 10:45:00,
2013-01-08 02:50:00,45.4,42.9,30.19,NE,49,0.0,0.0,91,0.00,,,0.00,WeatherCatV1.11B39,2013-01-08 10:50:00,
2013-01-08 02:55:00,45.4,42.9,30.19,NNE,23,0.0,0.0,91,0.00,,,0.00,WeatherCatV1.11B39,2013-01-08 10:55:00,
2013-01-08 03:01:00,45.4,42.9,30.19,NE,39,0.0,0.0,91,0.00,,,0.00,WeatherCatV1.11B39,2013-01-08 11:01:00,
2013-01-08 03:06:00,45.4,42.9,30.19,NE,41,0.0,0.0,91,0.00,,,0.00,WeatherCatV1.11B39,2013-01-08 11:06:00,
2013-01-08 03:11:00,45.4,42.9,30.19,NE,41,0.0,0.0,91,0.00,,,0.00,WeatherCatV1.11B39,2013-01-08 11:11:00,
2013-01-08 03:16:00,45.4,42.9,30.19,NNE,30,0.0,0.0,91,0.00,,,0.00,WeatherCatV1.11B39,2013-01-08 11:16:00,
2013-01-08 03:21:00,45.4,42.9,30.19,NNE,32,0.0,1.0,91,0.00,,,0.00,WeatherCatV1.11B39,2013-01-08 11:21:00,
2013-01-08 03:26:00,45.4,42.9,30.19,NNE,33,0.0,1.0,91,0.00,,,0.00,WeatherCatV1.11B39,2013-01-08 11:26:00,
2013-01-08 03:31:00,45.4,42.9,30.19,NE,34,0.0,0.0,91,0.00,,,0.00,WeatherCatV1.11B39,2013-01-08 11:31:00,
2013-01-08 03:36:00,45.3,42.8,30.19,NE,46,0.0,1.0,91,0.00,,,0.00,WeatherCatV1.11B39,2013-01-08 11:36:00,
2013-01-08 03:41:00,45.3,42.8,30.20,NE,42,0.0,0.0,91,0.00,,,0.00,WeatherCatV1.11B39,2013-01-08 11:41:00,
2013-01-08 03:46:00,45.3,42.8,30.20,NE,36,0.0,1.0,91,0.00,,,0.00,WeatherCatV1.11B39,2013-01-08 11:46:00,
2013-01-08 03:51:00,45.2,42.7,30.20,NE,42,0.0,0.0,91,0.00,,,0.00,WeatherCatV1.11B39,2013-01-08 11:51:00,
2013-01-08 03:56:00,45.2,42.7,30.20,NE,43,0.0,0.0,91,0.00,,,0.00,WeatherCatV1.11B39,2013-01-08 11:56:00,
2013-01-08 04:01:00,45.0,42.5,30.20,NE,43,0.0,0.0,91,0.00,,,0.00,WeatherCatV1.11B39,2013-01-08 12:01:00,
2013-01-08 04:06:00,44.9,42.4,30.20,NE,43,0.0,0.0,91,0.00,,,0.00,WeatherCatV1.11B39,2013-01-08 12:06:00,
2013-01-08 04:11:00,44.8,42.3,30.20,NE,43,0.0,0.0,91,0.00,,,0.00,WeatherCatV1.11B39,2013-01-08 12:11:00,
2013-01-08 04:16:00,44.7,42.2,30.19,NE,43,0.0,0.0,91,0.00,,,0.00,WeatherCatV1.11B39,2013-01-08 12:16:00,
2013-01-08 04:21:00,44.5,42.0,30.19,WNW,297,0.0,0.0,91,0.00,,,0.00,WeatherCatV1.11B39,2013-01-08 12:21:00,
2013-01-08 04:26:00,44.5,42.0,30.19,NNE,18,0.0,0.0,91,0.00,,,0.00,WeatherCatV1.11B39,2013-01-08 12:26:00,
2013-01-08 04:31:00,44.5,42.0,30.19,NNE,17,0.0,0.0,91,0.00,,,0.00,WeatherCatV1.11B39,2013-01-08 12:31:00,
2013-01-08 04:36:00,44.5,42.0,30.19,NNE,18,0.0,0.0,91,0.00,,,0.00,WeatherCatV1.11B39,2013-01-08 12:36:00,
2013-01-08 04:41:00,44.7,42.2,30.19,NE,37,0.0,3.0,91,0.00,,,0.00,WeatherCatV1.11B39,2013-01-08 12:41:00,
2013-01-08 04:46:00,44.7,42.2,30.19,NNE,33,2.0,2.0,91,0.00,,,0.00,WeatherCatV1.11B39,2013-01-08 12:46:00,
2013-01-08 04:51:00,44.7,42.2,30.19,NE,40,0.0,0.0,91,0.00,,,0.00,WeatherCatV1.11B39,2013-01-08 12:51:00,
2013-01-08 04:56:00,44.6,42.1,30.19,NE,43,0.0,0.0,91,0.00,,,0.00,WeatherCatV1.11B39,2013-01-08 12:56:00,
2013-01-08 05:01:00,44.5,42.0,30.19,NE,43,0.0,0.0,91,0.00,,,0.00,WeatherCatV1.11B39,2013-01-08 13:01:00,
2013-01-08 05:06:00,44.4,41.9,30.19,NE,43,0.0,0.0,91,0.00,,,0.00,WeatherCatV1.11B39,2013-01-08 13:06:00,
2013-01-08 05:11:00,44.4,41.9,30.19,NE,40,0.0,0.0,91,0.00,,,0.00,WeatherCatV1.11B39,2013-01-08 13:11:00,
2013-01-08 05:16:00,44.4,41.9,30.19,NE,41,0.0,3.0,91,0.00,,,0.00,WeatherCatV1.11B39,2013-01-08 13:16:00,
2013-01-08 05:21:00,44.4,41.9,30.19,NE,42,0.0,0.0,91,0.00,,,0.00,WeatherCatV1.11B39,2013-01-08 13:21:00,
2013-01-08 05:26:00,44.3,41.8,30.19,NNE,23,0.0,0.0,91,0.00,,,0.00,WeatherCatV1.11B39,2013-01-08 13:26:00,
2013-01-08 05:31:00,44.1,41.6,30.19,NNE,33,0.0,0.0,91,0.00,,,0.00,WeatherCatV1.11B39,2013-01-08 13:31:00,
2013-01-08 05:36:00,44.1,41.6,30.19,ENE,60,1.0,1.0,91,0.00,,,0.00,WeatherCatV1.11B39,2013-01-08 13:36:00,
2013-01-08 05:41:00,44.2,41.7,30.19,NE,40,0.0,3.0,91,0.00,,,0.00,WeatherCatV1.11B39,2013-01-08 13:41:00,
2013-01-08 05:46:00,44.2,41.7,30.19,NE,41,0.0,1.0,91,0.00,,,0.00,WeatherCatV1.11B39,2013-01-08 13:46:00,
2013-01-08 05:51:00,44.0,41.5,30.19,NE,41,0.0,1.0,91,0.00,,,0.00,WeatherCatV1.11B39,2013-01-08 13:51:00,
2013-01-08 05:56:00,44.0,41.5,30.19,NE,42,1.0,2.0,91,0.00,,,0.00,WeatherCatV1.11B39,2013-01-08 13:56:00,
2013-01-08 06:01:00,44.1,41.6,30.20,NE,37,0.0,2.0,91,0.00,,,0.00,WeatherCatV1.11B39,2013-01-08 14:01:00,
2013-01-08 06:06:00,44.1,41.9,30.20,NE,49,0.0,1.0,92,0.00,,,0.00,WeatherCatV1.11B39,2013-01-08 14:06:00,
2013-01-08 06:11:00,44.0,41.8,30.20,NE,46,0.0,0.0,92,0.00,,,0.00,WeatherCatV1.11B39,2013-01-08 14:11:00,
2013-01-08 06:16:00,44.0,41.8,30.20,NE,43,0.0,0.0,92,0.00,,,0.00,WeatherCatV1.11B39,2013-01-08 14:16:00,
2013-01-08 06:21:00,44.0,41.8,30.19,NE,37,0.0,1.0,92,0.00,,,0.00,WeatherCatV1.11B39,2013-01-08 14:21:00,
2013-01-08 06:26:00,44.0,41.8,30.20,NE,46,0.0,0.0,92,0.00,,,0.00,WeatherCatV1.11B39,2013-01-08 14:26:00,
2013-01-08 06:31:00,44.1,41.9,30.20,NE,38,0.0,0.0,92,0.00,,,0.00,WeatherCatV1.11B39,2013-01-08 14:31:00,
2013-01-08 06:36:00,44.0,41.8,30.20,NE,39,0.0,0.0,92,0.00,,,0.00,WeatherCatV1.11B39,2013-01-08 14:36:00,
2013-01-08 06:41:00,44.0,41.8,30.20,NE,46,0.0,0.0,92,0.00,,,0.00,WeatherCatV1.11B39,2013-01-08 14:41:00,
2013-01-08 06:46:00,43.9,41.7,30.20,NE,46,0.0,0.0,92,0.00,,,0.00,WeatherCatV1.11B39,2013-01-08 14:46:00,
2013-01-08 06:51:00,43.8,41.6,30.20,NE,46,0.0,0.0,92,0.00,,,0.00,WeatherCatV1.11B39,2013-01-08 14:51:00,
2013-01-08 06:56:00,43.8,41.6,30.20,NE,46,0.0,0.0,92,0.00,,,0.00,WeatherCatV1.11B39,2013-01-08 14:56:00,
2013-01-08 07:01:00,43.7,41.5,30.21,NE,46,0.0,0.0,92,0.00,,,0.00,WeatherCatV1.11B39,2013-01-08 15:01:00,
2013-01-08 07:06:00,43.6,41.4,30.20,NE,37,0.0,2.0,92,0.00,,,0.00,WeatherCatV1.11B39,2013-01-08 15:06:00,
2013-01-08 07:11:00,43.6,41.4,30.21,NE,37,0.0,0.0,92,0.00,,,0.00,WeatherCatV1.11B39,2013-01-08 15:11:00,
2013-01-08 07:16:00,43.6,41.4,30.21,NE,34,0.0,0.0,92,0.00,,,0.00,WeatherCatV1.11B39,2013-01-08 15:16:00,
2013-01-08 07:21:00,43.5,41.3,30.21,North,356,0.0,0.0,92,0.00,,,0.00,WeatherCatV1.11B39,2013-01-08 15:21:00,
2013-01-08 07:26:00,43.4,41.2,30.21,WSW,255,0.0,0.0,92,0.00,,,0.00,WeatherCatV1.11B39,2013-01-08 15:26:00,
2013-01-08 07:31:00,43.4,41.2,30.21,WSW,243,0.0,0.0,92,0.00,,,0.00,WeatherCatV1.11B39,2013-01-08 15:31:00,
2013-01-08 07:36:00,43.4,41.2,30.21,WNW,287,0.0,0.0,92,0.00,,,0.00,WeatherCatV1.11B39,2013-01-08 15:36:00,
2013-01-08 07:41:00,43.5,41.3,30.21,East,82,0.0,0.0,92,0.00,,,0.00,WeatherCatV1.11B39,2013-01-08 15:41:00,
2013-01-08 07:46:00,43.6,41.4,30.21,SW,219,0.0,0.0,92,0.00,,,0.00,WeatherCatV1.11B39,2013-01-08 15:46:00,
2013-01-08 07:51:00,43.8,41.6,30.21,SW,229,0.0,0.0,92,0.00,,,0.00,WeatherCatV1.11B39,2013-01-08 15:51:00,
2013-01-08 07:56:00,43.9,41.7,30.21,SW,232,0.0,0.0,92,0.00,,,0.00,WeatherCatV1.11B39,2013-01-08 15:56:00,
2013-01-08 08:01:00,44.0,41.8,30.21,West,264,0.0,0.0,92,0.00,,,0.00,WeatherCatV1.11B39,2013-01-08 16:01:00,
2013-01-08 08:06:00,44.1,41.9,30.22,NE,41,0.0,0.0,92,0.00,,,0.00,WeatherCatV1.11B39,2013-01-08 16:06:00,
2013-01-08 08:11:00,44.2,42.0,30.22,NE,41,0.0,0.0,92,0.00,,,0.00,WeatherCatV1.11B39,2013-01-08 16:11:00,
2013-01-08 08:16:00,44.4,42.2,30.22,NE,49,0.0,0.0,92,0.00,,,0.00,WeatherCatV1.11B39,2013-01-08 16:16:00,
2013-01-08 08:21:00,44.6,42.4,30.22,NE,49,0.0,0.0,92,0.00,,,0.00,WeatherCatV1.11B39,2013-01-08 16:21:00,
2013-01-08 08:26:00,44.8,42.6,30.22,NE,34,0.0,0.0,92,0.00,,,0.00,WeatherCatV1.11B39,2013-01-08 16:26:00,
2013-01-08 08:31:00,44.9,42.7,30.22,West,264,0.0,0.0,92,0.00,,,0.00,WeatherCatV1.11B39,2013-01-08 16:31:00,
2013-01-08 08:36:00,45.1,42.9,30.22,WSW,250,0.0,0.0,92,0.00,,,0.00,WeatherCatV1.11B39,2013-01-08 16:36:00,
2013-01-08 08:41:00,45.2,43.0,30.23,West,260,0.0,0.0,92,0.00,,,0.00,WeatherCatV1.11B39,2013-01-08 16:41:00,
2013-01-08 08:46:00,45.3,43.1,30.23,NNE,32,0.0,0.0,92,0.00,,,0.00,WeatherCatV1.11B39,2013-01-08 16:46:00,
2013-01-08 08:51:00,45.2,43.0,30.23,NE,44,0.0,0.0,92,0.00,,,0.00,WeatherCatV1.11B39,2013-01-08 16:51:00,
2013-01-08 08:56:00,45.3,43.1,30.23,NE,38,0.0,0.0,92,0.00,,,0.00,WeatherCatV1.11B39,2013-01-08 16:56:00,
2013-01-08 09:01:00,45.4,43.2,30.23,NNE,27,0.0,0.0,92,0.00,,,0.00,WeatherCatV1.11B39,2013-01-08 17:01:00,
2013-01-08 09:06:00,45.4,43.2,30.24,NNE,23,0.0,0.0,92,0.00,,,0.00,WeatherCatV1.11B39,2013-01-08 17:06:00,
2013-01-08 09:11:00,45.5,43.3,30.24,North,357,0.0,0.0,92,0.00,,,0.00,WeatherCatV1.11B39,2013-01-08 17:11:00,
2013-01-08 09:16:00,45.7,43.5,30.24,NNE,25,0.0,1.0,92,0.00,,,0.00,WeatherCatV1.11B39,2013-01-08 17:16:00,
2013-01-08 09:21:00,45.7,43.5,30.24,ENE,78,0.0,0.0,92,0.00,,,0.00,WeatherCatV1.11B39,2013-01-08 17:21:00,
2013-01-08 09:26:00,45.9,43.7,30.24,ENE,73,0.0,0.0,92,0.00,,,0.00,WeatherCatV1.11B39,2013-01-08 17:26:00,
2013-01-08 09:31:00,46.1,43.9,30.24,NNE,30,0.0,0.0,92,0.00,,,0.00,WeatherCatV1.11B39,2013-01-08 17:31:00,
2013-01-08 09:36:00,46.3,44.1,30.24,NE,45,0.0,0.0,92,0.00,,,0.00,WeatherCatV1.11B39,2013-01-08 17:36:00,
2013-01-08 09:41:00,46.4,44.2,30.24,NE,54,0.0,1.0,92,0.00,,,0.00,WeatherCatV1.11B39,2013-01-08 17:41:00,
2013-01-08 09:46:00,46.8,44.6,30.25,NE,47,0.0,0.0,92,0.00,,,0.00,WeatherCatV1.11B39,2013-01-08 17:46:00,
2013-01-08 09:51:00,47.1,44.9,30.25,NE,50,0.0,0.0,92,0.00,,,0.00,WeatherCatV1.11B39,2013-01-08 17:51:00,
2013-01-08 09:56:00,47.6,45.4,30.25,ENE,73,0.0,0.0,92,0.00,,,0.00,WeatherCatV1.11B39,2013-01-08 17:56:00,
2013-01-08 10:01:00,48.6,46.4,30.25,South,173,0.0,0.0,92,0.00,,,0.00,WeatherCatV1.11B39,2013-01-08 18:01:00,
2013-01-08 10:06:00,49.3,47.1,30.25,WSW,244,0.0,0.0,92,0.00,,,0.00,WeatherCatV1.11B39,2013-01-08 18:06:00,
2013-01-08 10:11:00,49.6,47.4,30.25,ENE,78,0.0,0.0,92,0.00,,,0.00,WeatherCatV1.11B39,2013-01-08 18:11:00,
2013-01-08 10:16:00,49.5,47.0,30.25,NE,35,0.0,0.0,91,0.00,,,0.00,WeatherCatV1.11B39,2013-01-08 18:16:00,
2013-01-08 10:21:00,49.1,46.6,30.25,NE,45,0.0,0.0,91,0.00,,,0.00,WeatherCatV1.11B39,2013-01-08 18:21:00,
2013-01-08 10:26:00,49.1,46.3,30.25,NNW,340,0.0,0.0,90,0.00,,,0.00,WeatherCatV1.11B39,2013-01-08 18:26:00,
2013-01-08 10:31:00,49.1,46.3,30.24,NE,37,0.0,0.0,90,0.00,,,0.00,WeatherCatV1.11B39,2013-01-08 18:31:00,
2013-01-08 10:36:00,48.5,45.4,30.24,NE,40,0.0,0.0,89,0.00,,,0.00,WeatherCatV1.11B39,2013-01-08 18:36:00,
2013-01-08 10:41:00,48.5,45.7,30.24,NE,41,0.0,0.0,90,0.00,,,0.00,WeatherCatV1.11B39,2013-01-08 18:41:00,
2013-01-08 10:46:00,48.8,46.0,30.23,NE,40,0.0,0.0,90,0.00,,,0.00,WeatherCatV1.11B39,2013-01-08 18:46:00,
2013-01-08 10:51:00,49.6,46.8,30.23,NE,41,0.0,0.0,90,0.00,,,0.00,WeatherCatV1.11B39,2013-01-08 18:51:00,
2013-01-08 10:56:00,49.7,46.6,30.23,NE,43,0.0,0.0,89,0.00,,,0.00,WeatherCatV1.11B39,2013-01-08 18:56:00,
2013-01-08 11:01:00,50.6,47.5,30.23,NE,42,0.0,0.0,89,0.00,,,0.00,WeatherCatV1.11B39,2013-01-08 19:01:00,
2013-01-08 11:06:00,50.8,47.1,30.22,NNE,29,0.0,0.0,87,0.00,,,0.00,WeatherCatV1.11B39,2013-01-08 19:06:00,
2013-01-08 11:11:00,51.6,48.2,30.22,NNE,28,0.0,0.0,88,0.00,,,0.00,WeatherCatV1.11B39,2013-01-08 19:11:00,
2013-01-08 11:16:00,53.0,48.9,30.22,NNE,29,0.0,0.0,86,0.00,,,0.00,WeatherCatV1.11B39,2013-01-08 19:16:00,
2013-01-08 11:21:00,52.5,47.5,30.22,NNE,32,0.0,0.0,83,0.00,,,0.00,WeatherCatV1.11B39,2013-01-08 19:21:00,
2013-01-08 11:26:00,51.4,46.7,30.22,NNE,32,0.0,2.0,84,0.00,,,0.00,WeatherCatV1.11B39,2013-01-08 19:26:00,
2013-01-08 11:31:00,50.4,46.1,30.22,NE,42,1.0,4.0,85,0.00,,,0.00,WeatherCatV1.11B39,2013-01-08 19:31:00,
2013-01-08 11:36:00,49.8,45.8,30.22,NE,39,1.0,3.0,86,0.00,,,0.00,WeatherCatV1.11B39,2013-01-08 19:36:00,
2013-01-08 11:41:00,49.9,46.2,30.22,NE,56,0.0,0.0,87,0.00,,,0.00,WeatherCatV1.11B39,2013-01-08 19:41:00,
2013-01-08 11:46:00,50.6,46.9,30.21,NE,43,0.0,0.0,87,0.00,,,0.00,WeatherCatV1.11B39,2013-01-08 19:46:00,
2013-01-08 11:51:00,51.3,47.3,30.21,NE,41,0.0,0.0,86,0.00,,,0.00,WeatherCatV1.11B39,2013-01-08 19:51:00,
2013-01-08 11:56:00,52.5,48.1,30.20,NE,34,0.0,0.0,85,0.00,,,0.00,WeatherCatV1.11B39,2013-01-08 19:56:00,
2013-01-08 12:01:00,52.4,47.4,30.20,NE,41,0.0,0.0,83,0.00,,,0.00,WeatherCatV1.11B39,2013-01-08 20:01:00,
2013-01-08 12:06:00,52.6,47.6,30.19,NE,44,0.0,0.0,83,0.00,,,0.00,WeatherCatV1.11B39,2013-01-08 20:06:00,
2013-01-08 12:11:00,52.9,47.2,30.19,NNE,27,0.0,0.0,81,0.00,,,0.00,WeatherCatV1.11B39,2013-01-08 20:11:00,
2013-01-08 12:16:00,52.9,47.2,30.19,NE,39,1.0,3.0,81,0.00,,,0.00,WeatherCatV1.11B39,2013-01-08 20:16:00,
2013-01-08 12:21:00,52.6,46.9,30.19,NE,46,1.0,2.0,81,0.00,,,0.00,WeatherCatV1.11B39,2013-01-08 20:21:00,
2013-01-08 12:26:00,52.6,47.6,30.18,NE,42,2.0,3.0,83,0.00,,,0.00,WeatherCatV1.11B39,2013-01-08 20:26:00,
2013-01-08 12:31:00,52.6,47.6,30.18,NE,37,1.0,1.0,83,0.00,,,0.00,WeatherCatV1.11B39,2013-01-08 20:31:00,
2013-01-08 12:36:00,53.1,47.8,30.18,East,79,0.0,1.0,82,0.00,,,0.00,WeatherCatV1.11B39,2013-01-08 20:36:00,
2013-01-08 12:41:00,53.1,47.4,30.17,NNE,29,0.0,3.0,81,0.00,,,0.00,WeatherCatV1.11B39,2013-01-08 20:41:00,
2013-01-08 12:46:00,52.3,46.6,30.17,ENE,67,2.0,5.0,81,0.00,,,0.00,WeatherCatV1.11B39,2013-01-08 20:46:00,
2013-01-08 12:51:00,52.0,47.0,30.17,NE,41,1.0,1.0,83,0.00,,,0.00,WeatherCatV1.11B39,2013-01-08 20:51:00,
2013-01-08 12:58:00,52.8,48.7,30.17,North,8,1.0,1.0,86,0.00,,,0.00,WeatherCatV1.11B39,2013-01-08 20:58:00,
2013-01-08 13:03:00,54.3,49.2,30.17,West,276,0.0,0.0,83,0.00,,,0.00,WeatherCatV1.11B39,2013-01-08 21:03:00,
2013-01-08 13:08:00,55.3,48.9,30.17,NE,47,0.0,0.0,79,0.00,,,0.00,WeatherCatV1.11B39,2013-01-08 21:08:00,
2013-01-08 13:13:00,54.3,46.9,30.17,ENE,76,1.0,3.0,76,0.00,,,0.00,WeatherCatV1.11B39,2013-01-08 21:13:00,
2013-01-08 13:18:00,52.9,46.9,30.17,NE,35,3.0,4.0,80,0.00,,,0.00,WeatherCatV1.11B39,2013-01-08 21:18:00,
2013-01-08 13:23:00,52.1,46.4,30.17,East,98,1.0,2.0,81,0.00,,,0.00,WeatherCatV1.11B39,2013-01-08 21:23:00,
2013-01-08 13:28:00,52.2,46.9,30.17,NE,50,2.0,2.0,82,0.00,,,0.00,WeatherCatV1.11B39,2013-01-08 21:28:00,
2013-01-08 13:33:00,52.1,46.8,30.17,ENE,59,2.0,3.0,82,0.00,,,0.00,WeatherCatV1.11B39,2013-01-08 21:33:00,
2013-01-08 13:38:00,52.0,47.0,30.16,NE,44,3.0,3.0,83,0.00,,,0.00,WeatherCatV1.11B39,2013-01-08 21:38:00,
2013-01-08 13:43:00,52.2,47.2,30.16,NE,34,2.0,3.0,83,0.00,,,0.00,WeatherCatV1.11B39,2013-01-08 21:43:00,
2013-01-08 13:48:00,52.2,46.5,30.16,NNE,20,2.0,4.0,81,0.00,,,0.00,WeatherCatV1.11B39,2013-01-08 21:48:00,
2013-01-08 13:53:00,52.1,46.4,30.16,NNE,32,2.0,4.0,81,0.00,,,0.00,WeatherCatV1.11B39,2013-01-08 21:53:00,
2013-01-08 13:58:00,52.2,46.9,30.16,NE,48,3.0,4.0,82,0.00,,,0.00,WeatherCatV1.11B39,2013-01-08 21:58:00,
2013-01-08 14:03:00,52.3,46.6,30.16,NE,42,3.0,4.0,81,0.00,,,0.00,WeatherCatV1.11B39,2013-01-08 22:03:00,
2013-01-08 14:08:00,52.4,46.7,30.16,NE,40,2.0,3.0,81,0.00,,,0.00,WeatherCatV1.11B39,2013-01-08 22:08:00,
2013-01-08 14:13:00,52.7,47.4,30.16,NE,41,2.0,3.0,82,0.00,,,0.00,WeatherCatV1.11B39,2013-01-08 22:13:00,
2013-01-08 14:18:00,52.8,46.8,30.16,NE,41,3.0,4.0,80,0.00,,,0.00,WeatherCatV1.11B39,2013-01-08 22:18:00,
2013-01-08 14:23:00,53.1,47.1,30.16,NE,39,0.0,2.0,80,0.00,,,0.00,WeatherCatV1.11B39,2013-01-08 22:23:00,
2013-01-08 14:28:00,53.6,47.6,30.16,NE,40,0.0,2.0,80,0.00,,,0.00,WeatherCatV1.11B39,2013-01-08 22:28:00,
2013-01-08 14:33:00,54.3,47.6,30.17,NE,42,0.0,1.0,78,0.00,,,0.00,WeatherCatV1.11B39,2013-01-08 22:33:00,
2013-01-08 14:38:00,54.8,47.4,30.17,NE,43,0.0,1.0,76,0.00,,,0.00,WeatherCatV1.11B39,2013-01-08 22:38:00,
2013-01-08 14:43:00,54.8,47.4,30.17,NNE,29,0.0,1.0,76,0.00,,,0.00,WeatherCatV1.11B39,2013-01-08 22:43:00,
2013-01-08 14:48:00,54.5,47.1,30.17,NNE,32,2.0,3.0,76,0.00,,,0.00,WeatherCatV1.11B39,2013-01-08 22:48:00,
2013-01-08 14:53:00,54.4,47.3,30.16,NE,36,1.0,2.0,77,0.00,,,0.00,WeatherCatV1.11B39,2013-01-08 22:53:00,
2013-01-08 14:58:00,54.5,47.1,30.16,NE,41,1.0,1.0,76,0.00,,,0.00,WeatherCatV1.11B39,2013-01-08 22:58:00,
2013-01-08 15:03:00,54.7,46.9,30.16,NE,36,1.0,2.0,75,0.00,,,0.00,WeatherCatV1.11B39,2013-01-08 23:03:00,
2013-01-08 15:08:00,54.9,47.1,30.16,NE,46,0.0,1.0,75,0.00,,,0.00,WeatherCatV1.11B39,2013-01-08 23:08:00,
2013-01-08 15:13:00,55.0,47.6,30.16,NE,39,0.0,2.0,76,0.00,,,0.00,WeatherCatV1.11B39,2013-01-08 23:13:00,
2013-01-08 15:18:00,55.8,48.0,30.16,NE,39,0.0,0.0,75,0.00,,,0.00,WeatherCatV1.11B39,2013-01-08 23:18:00,
2013-01-08 15:23:00,55.9,47.4,30.16,NE,46,0.0,0.0,73,0.00,,,0.00,WeatherCatV1.11B39,2013-01-08 23:23:00,
2013-01-08 15:28:00,55.8,47.3,30.16,NE,37,0.0,1.0,73,0.00,,,0.00,WeatherCatV1.11B39,2013-01-08 23:28:00,
2013-01-08 15:33:00,56.0,47.8,30.16,NE,37,0.0,0.0,74,0.00,,,0.00,WeatherCatV1.11B39,2013-01-08 23:33:00,
2013-01-08 15:38:00,55.9,47.7,30.16,NE,37,0.0,1.0,74,0.00,,,0.00,WeatherCatV1.11B39,2013-01-08 23:38:00,
2013-01-08 15:43:00,55.8,47.6,30.15,NNE,33,0.0,1.0,74,0.00,,,0.00,WeatherCatV1.11B39,2013-01-08 23:43:00,
2013-01-08 15:48:00,55.6,47.8,30.16,NNE,32,0.0,1.0,75,0.00,,,0.00,WeatherCatV1.11B39,2013-01-08 23:48:00,
2013-01-08 15:53:00,55.4,48.0,30.15,NE,41,0.0,1.0,76,0.00,,,0.00,WeatherCatV1.11B39,2013-01-08 23:53:00,
2013-01-08 15:58:00,54.8,47.4,30.15,NNE,30,0.0,1.0,76,0.00,,,0.00,WeatherCatV1.11B39,2013-01-08 23:58:00,
2013-01-08 16:03:00,54.2,47.5,30.15,NE,44,2.0,2.0,78,0.00,,,0.00,WeatherCatV1.11B39,2013-01-09 00:03:00,
2013-01-08 16:08:00,53.8,47.1,30.15,NE,44,1.0,1.0,78,0.00,,,0.00,WeatherCatV1.11B39,2013-01-09 00:08:00,
2013-01-08 16:13:00,53.7,47.0,30.15,NE,46,0.0,4.0,78,0.00,,,0.00,WeatherCatV1.11B39,2013-01-09 00:13:00,
2013-01-08 16:18:00,53.4,47.1,30.15,NE,41,1.0,2.0,79,0.00,,,0.00,WeatherCatV1.11B39,2013-01-09 00:18:00,
2013-01-08 16:23:00,52.7,46.7,30.15,NE,41,0.0,1.0,80,0.00,,,0.00,WeatherCatV1.11B39,2013-01-09 00:23:00,
2013-01-08 16:28:00,52.5,46.8,30.15,NNE,24,0.0,3.0,81,0.00,,,0.00,WeatherCatV1.11B39,2013-01-09 00:28:00,
2013-01-08 16:33:00,52.3,46.6,30.15,NE,36,0.0,3.0,81,0.00,,,0.00,WeatherCatV1.11B39,2013-01-09 00:33:00,
2013-01-08 16:38:00,52.0,46.7,30.15,NE,34,0.0,3.0,82,0.00,,,0.00,WeatherCatV1.11B39,2013-01-09 00:38:00,
2013-01-08 16:43:00,51.7,46.4,30.14,NE,35,0.0,1.0,82,0.00,,,0.00,WeatherCatV1.11B39,2013-01-09 00:43:00,
2013-01-08 16:48:00,51.5,46.2,30.14,NNE,29,1.0,2.0,82,0.00,,,0.00,WeatherCatV1.11B39,2013-01-09 00:48:00,
2013-01-08 16:53:00,51.4,46.4,30.14,NE,41,0.0,2.0,83,0.00,,,0.00,WeatherCatV1.11B39,2013-01-09 00:53:00,
2013-01-08 16:58:00,51.3,46.3,30.14,NNE,30,0.0,4.0,83,0.00,,,0.00,WeatherCatV1.11B39,2013-01-09 00:58:00,
2013-01-08 17:03:00,51.4,46.4,30.14,NE,39,0.0,3.0,83,0.00,,,0.00,WeatherCatV1.11B39,2013-01-09 01:03:00,
2013-01-08 17:08:00,51.1,46.1,30.13,NE,37,0.0,3.0,83,0.00,,,0.00,WeatherCatV1.11B39,2013-01-09 01:08:00,
2013-01-08 17:13:00,50.8,46.1,30.13,NE,44,1.0,3.0,84,0.00,,,0.00,WeatherCatV1.11B39,2013-01-09 01:13:00,
2013-01-08 17:18:00,50.6,45.9,30.14,NNE,27,0.0,0.0,84,0.00,,,0.00,WeatherCatV1.11B39,2013-01-09 01:18:00,
2013-01-08 17:23:00,50.5,45.8,30.14,NE,48,0.0,2.0,84,0.00,,,0.00,WeatherCatV1.11B39,2013-01-09 01:23:00,
2013-01-08 17:28:00,50.3,46.0,30.14,NE,37,0.0,0.0,85,0.00,,,0.00,WeatherCatV1.11B39,2013-01-09 01:28:00,
2013-01-08 17:33:00,50.2,45.9,30.14,NE,47,0.0,0.0,85,0.00,,,0.00,WeatherCatV1.11B39,2013-01-09 01:33:00,
2013-01-08 17:38:00,50.0,45.7,30.14,NE,39,0.0,0.0,85,0.00,,,0.00,WeatherCatV1.11B39,2013-01-09 01:38:00,
2013-01-08 17:43:00,49.8,45.5,30.15,NE,49,0.0,1.0,85,0.00,,,0.00,WeatherCatV1.11B39,2013-01-09 01:43:00,
2013-01-08 17:48:00,49.7,45.4,30.15,NE,47,0.0,1.0,85,0.00,,,0.00,WeatherCatV1.11B39,2013-01-09 01:48:00,
2013-01-08 17:53:00,49.6,45.3,30.15,NNE,30,0.0,0.0,85,0.00,,,0.00,WeatherCatV1.11B39,2013-01-09 01:53:00,
2013-01-08 17:58:00,49.6,45.3,30.15,NNE,32,1.0,1.0,85,0.00,,,0.00,WeatherCatV1.11B39,2013-01-09 01:58:00,
2013-01-08 18:03:00,49.8,45.5,30.15,NNE,30,1.0,2.0,85,0.00,,,0.00,WeatherCatV1.11B39,2013-01-09 02:03:00,
2013-01-08 18:08:00,49.8,45.5,30.15,NE,46,2.0,2.0,85,0.00,,,0.00,WeatherCatV1.11B39,2013-01-09 02:08:00,
2013-01-08 18:13:00,49.9,45.6,30.15,NE,41,1.0,2.0,85,0.00,,,0.00,WeatherCatV1.11B39,2013-01-09 02:13:00,
2013-01-08 18:18:00,49.9,45.3,30.15,NE,43,0.0,2.0,84,0.00,,,0.00,WeatherCatV1.11B39,2013-01-09 02:18:00,
2013-01-08 18:23:00,49.8,45.2,30.15,NE,37,0.0,2.0,84,0.00,,,0.00,WeatherCatV1.11B39,2013-01-09 02:23:00,
2013-01-08 18:28:00,49.8,45.5,30.15,NNE,30,2.0,2.0,85,0.00,,,0.00,WeatherCatV1.11B39,2013-01-09 02:28:00,
2013-01-08 18:33:00,49.8,45.2,30.15,NNE,30,2.0,5.0,84,0.00,,,0.00,WeatherCatV1.11B39,2013-01-09 02:33:00,
2013-01-08 18:38:00,49.8,45.2,30.14,NNE,25,1.0,3.0,84,0.00,,,0.00,WeatherCatV1.11B39,2013-01-09 02:38:00,
2013-01-08 18:43:00,49.7,45.1,30.14,NE,37,0.0,4.0,84,0.00,,,0.00,WeatherCatV1.11B39,2013-01-09 02:43:00,
2013-01-08 18:48:00,49.6,45.0,30.14,NE,39,1.0,2.0,84,0.00,,,0.00,WeatherCatV1.11B39,2013-01-09 02:48:00,
2013-01-08 18:53:00,49.5,45.2,30.15,NE,37,1.0,2.0,85,0.00,,,0.00,WeatherCatV1.11B39,2013-01-09 02:53:00,
2013-01-08 18:58:00,49.3,45.0,30.15,NE,37,0.0,2.0,85,0.00,,,0.00,WeatherCatV1.11B39,2013-01-09 02:58:00,
2013-01-08 19:03:00,49.1,44.8,30.15,NE,36,0.0,0.0,85,0.00,,,0.00,WeatherCatV1.11B39,2013-01-09 03:03:00,
2013-01-08 19:08:00,49.0,44.7,30.15,NE,44,0.0,0.0,85,0.00,,,0.00,WeatherCatV1.11B39,2013-01-09 03:08:00,
2013-01-08 19:13:00,48.9,44.9,30.15,NE,38,0.0,0.0,86,0.00,,,0.00,WeatherCatV1.11B39,2013-01-09 03:13:00,
2013-01-08 19:18:00,48.8,44.8,30.16,NE,43,1.0,3.0,86,0.00,,,0.00,WeatherCatV1.11B39,2013-01-09 03:18:00,
2013-01-08 19:23:00,48.9,44.9,30.16,NE,38,2.0,3.0,86,0.00,,,0.00,WeatherCatV1.11B39,2013-01-09 03:23:00,
2013-01-08 19:28:00,49.1,44.8,30.16,NE,41,1.0,3.0,85,0.00,,,0.00,WeatherCatV1.11B39,2013-01-09 03:28:00,
2013-01-08 19:33:00,49.0,44.7,30.16,NE,46,0.0,0.0,85,0.00,,,0.00,WeatherCatV1.11B39,2013-01-09 03:33:00,
2013-01-08 19:38:00,49.1,44.8,30.16,NE,48,2.0,2.0,85,0.00,,,0.00,WeatherCatV1.11B39,2013-01-09 03:38:00,
2013-01-08 19:43:00,49.1,44.8,30.16,NE,43,3.0,3.0,85,0.00,,,0.00,WeatherCatV1.11B39,2013-01-09 03:43:00,
2013-01-08 19:48:00,49.3,44.7,30.16,NE,43,2.0,3.0,84,0.00,,,0.00,WeatherCatV1.11B39,2013-01-09 03:48:00,
2013-01-08 19:53:00,49.4,44.8,30.16,NE,40,1.0,3.0,84,0.00,,,0.00,WeatherCatV1.11B39,2013-01-09 03:53:00,
2013-01-08 19:58:00,49.4,44.8,30.16,NE,43,2.0,3.0,84,0.00,,,0.00,WeatherCatV1.11B39,2013-01-09 03:58:00,
2013-01-08 20:03:00,49.6,45.0,30.16,NE,42,2.0,3.0,84,0.00,,,0.00,WeatherCatV1.11B39,2013-01-09 04:03:00,
2013-01-08 20:08:00,49.6,44.7,30.15,NE,40,2.0,3.0,83,0.00,,,0.00,WeatherCatV1.11B39,2013-01-09 04:08:00,
2013-01-08 20:13:00,49.4,44.8,30.15,NE,41,2.0,2.0,84,0.00,,,0.00,WeatherCatV1.11B39,2013-01-09 04:13:00,
2013-01-08 20:18:00,49.3,44.7,30.15,NE,42,3.0,3.0,84,0.00,,,0.00,WeatherCatV1.11B39,2013-01-09 04:18:00,
2013-01-08 20:23:00,49.5,44.9,30.15,NE,43,2.0,3.0,84,0.00,,,0.00,WeatherCatV1.11B39,2013-01-09 04:23:00,
2013-01-08 20:28:00,49.5,44.6,30.14,NE,40,2.0,3.0,83,0.00,,,0.00,WeatherCatV1.11B39,2013-01-09 04:28:00,
2013-01-08 20:33:00,49.4,44.8,30.15,NE,39,2.0,3.0,84,0.00,,,0.00,WeatherCatV1.11B39,2013-01-09 04:33:00,
2013-01-08 20:38:00,49.4,44.8,30.15,NE,40,2.0,2.0,84,0.00,,,0.00,WeatherCatV1.11B39,2013-01-09 04:38:00,
2013-01-08 20:43:00,49.3,44.7,30.15,NE,40,1.0,3.0,84,0.00,,,0.00,WeatherCatV1.11B39,2013-01-09 04:43:00,
2013-01-08 20:48:00,49.1,44.5,30.15,NE,40,2.0,2.0,84,0.00,,,0.00,WeatherCatV1.11B39,2013-01-09 04:48:00,
2013-01-08 20:53:00,49.0,44.4,30.15,NE,40,2.0,2.0,84,0.00,,,0.00,WeatherCatV1.11B39,2013-01-09 04:53:00,
2013-01-08 20:58:00,48.9,44.6,30.16,NE,41,2.0,3.0,85,0.00,,,0.00,WeatherCatV1.11B39,2013-01-09 04:58:00,
2013-01-08 21:00:00,48.9,44.6,30.15,NE,43,2.0,2.0,85,0.00,,,0.00,WeatherCatV1.11B39,2013-01-09 05:00:00,
2013-01-08 21:01:00,48.9,44.6,30.15,NE,40,2.0,3.0,85,0.00,,,0.00,WeatherCatV1.11B39,2013-01-09 05:01:00,
2013-01-08 21:02:00,48.9,44.6,30.15,NE,39,2.0,3.0,85,0.00,,,0.00,WeatherCatV1.11B39,2013-01-09 05:02:00,
2013-01-08 21:07:00,48.8,44.5,30.16,NE,40,2.0,3.0,85,0.00,,,0.00,WeatherCatV1.11B39,2013-01-09 05:07:00,
2013-01-08 21:12:00,48.8,44.5,30.16,NE,40,2.0,3.0,85,0.00,,,0.00,WeatherCatV1.11B39,2013-01-09 05:12:00,
2013-01-08 21:17:00,48.7,44.4,30.15,NE,39,2.0,3.0,85,0.00,,,0.00,WeatherCatV1.11B39,2013-01-09 05:17:00,
2013-01-08 21:22:00,48.7,44.4,30.15,NE,37,2.0,3.0,85,0.00,,,0.00,WeatherCatV1.11B39,2013-01-09 05:22:00,
2013-01-08 21:27:00,48.6,44.3,30.15,NE,39,2.0,3.0,85,0.00,,,0.00,WeatherCatV1.11B39,2013-01-09 05:27:00,
2013-01-08 21:32:00,48.4,44.1,30.15,NE,40,2.0,3.0,85,0.00,,,0.00,WeatherCatV1.11B39,2013-01-09 05:32:00,
2013-01-08 21:37:00,48.4,44.4,30.16,NE,41,1.0,4.0,86,0.00,,,0.00,WeatherCatV1.11B39,2013-01-09 05:37:00,
2013-01-08 21:42:00,48.3,44.3,30.16,NE,40,1.0,2.0,86,0.00,,,0.00,WeatherCatV1.11B39,2013-01-09 05:42:00,
2013-01-08 21:47:00,48.2,44.2,30.16,NE,37,2.0,3.0,86,0.00,,,0.00,WeatherCatV1.11B39,2013-01-09 05:47:00,
2013-01-08 21:52:00,48.0,44.0,30.16,NE,40,2.0,4.0,86,0.00,,,0.00,WeatherCatV1.11B39,2013-01-09 05:52:00,
2013-01-08 21:57:00,48.0,44.0,30.16,NE,42,2.0,3.0,86,0.00,,,0.00,WeatherCatV1.11B39,2013-01-09 05:57:00,
2013-01-08 22:02:00,48.0,44.0,30.16,NE,36,1.0,3.0,86,0.00,,,0.00,WeatherCatV1.11B39,2013-01-09 06:02:00,
2013-01-08 22:07:00,48.2,44.2,30.16,NE,40,3.0,4.0,86,0.00,,,0.00,WeatherCatV1.11B39,2013-01-09 06:07:00,
2013-01-08 22:12:00,48.2,44.2,30.17,NE,39,2.0,3.0,86,0.00,,,0.00,WeatherCatV1.11B39,2013-01-09 06:12:00,
2013-01-08 22:17:00,48.0,44.0,30.16,NE,39,2.0,4.0,86,0.00,,,0.00,WeatherCatV1.11B39,2013-01-09 06:17:00,
2013-01-08 22:22:00,47.9,43.9,30.16,NE,40,1.0,3.0,86,0.00,,,0.00,WeatherCatV1.11B39,2013-01-09 06:22:00,
2013-01-08 22:27:00,47.8,43.8,30.16,NE,37,2.0,3.0,86,0.00,,,0.00,WeatherCatV1.11B39,2013-01-09 06:27:00,
2013-01-08 22:32:00,47.6,43.9,30.16,NE,40,2.0,2.0,87,0.00,,,0.00,WeatherCatV1.11B39,2013-01-09 06:32:00,
2013-01-08 22:37:00,47.6,43.9,30.16,NE,41,2.0,2.0,87,0.00,,,0.00,WeatherCatV1.11B39,2013-01-09 06:37:00,
2013-01-08 22:42:00,47.5,43.8,30.16,NE,37,0.0,1.0,87,0.00,,,0.00,WeatherCatV1.11B39,2013-01-09 06:42:00,
2013-01-08 22:47:00,47.5,43.8,30.16,NE,40,1.0,2.0,87,0.00,,,0.00,WeatherCatV1.11B39,2013-01-09 06:47:00,
2013-01-08 22:52:00,47.5,43.8,30.16,NE,41,0.0,2.0,87,0.00,,,0.00,WeatherCatV1.11B39,2013-01-09 06:52:00,
2013-01-08 22:57:00,47.5,43.8,30.16,NE,39,1.0,1.0,87,0.00,,,0.00,WeatherCatV1.11B39,2013-01-09 06:57:00,
2013-01-08 23:02:00,47.4,43.7,30.16,NE,40,0.0,0.0,87,0.00,,,0.00,WeatherCatV1.11B39,2013-01-09 07:02:00,
2013-01-08 23:07:00,47.4,43.7,30.16,NE,35,0.0,0.0,87,0.00,,,0.00,WeatherCatV1.11B39,2013-01-09 07:07:00,
2013-01-08 23:12:00,47.3,43.6,30.16,NE,37,0.0,4.0,87,0.00,,,0.00,WeatherCatV1.11B39,2013-01-09 07:12:00,
2013-01-08 23:17:00,47.3,43.9,30.16,NE,47,1.0,3.0,88,0.00,,,0.00,WeatherCatV1.11B39,2013-01-09 07:17:00,
2013-01-08 23:22:00,47.2,43.8,30.16,NNE,26,0.0,2.0,88,0.00,,,0.00,WeatherCatV1.11B39,2013-01-09 07:22:00,
2013-01-08 23:27:00,47.1,43.7,30.16,NE,39,1.0,1.0,88,0.00,,,0.00,WeatherCatV1.11B39,2013-01-09 07:27:00,
2013-01-08 23:32:00,47.1,43.7,30.15,NE,44,1.0,1.0,88,0.00,,,0.00,WeatherCatV1.11B39,2013-01-09 07:32:00,
2013-01-08 23:37:00,47.0,43.6,30.15,NE,41,1.0,4.0,88,0.00,,,0.00,WeatherCatV1.11B39,2013-01-09 07:37:00,
2013-01-08 23:42:00,46.9,43.5,30.16,NE,37,0.0,3.0,88,0.00,,,0.00,WeatherCatV1.11B39,2013-01-09 07:42:00,
2013-01-08 23:47:00,46.9,43.5,30.16,NE,34,0.0,4.0,88,0.00,,,0.00,WeatherCatV1.11B39,2013-01-09 07:47:00,
2013-01-08 23:52:00,46.8,43.4,30.16,NNE,16,0.0,1.0,88,0.00,,,0.00,WeatherCatV1.11B39,2013-01-09 07:52:00,
2013-01-08 23:57:00,46.8,43.4,30.16,NNE,27,0.0,3.0,88,0.00,,,0.00,WeatherCatV1.11B39,2013-01-09 07:57:00,